createdAt,value
2018-07-22T00:02:21.527Z,18.30
2018-07-22T00:04:49.827Z,18.28
2018-07-22T00:07:18.032Z,18.26
2018-07-22T00:09:46.362Z,18.23
2018-07-22T00:12:14.596Z,18.26
2018-07-22T00:14:42.876Z,18.25
2018-07-22T00:17:11.084Z,18.27
2018-07-22T00:19:39.371Z,18.32
2018-07-22T00:22:07.645Z,18.38
2018-07-22T00:24:35.922Z,18.34
2018-07-22T00:27:04.155Z,18.29
2018-07-22T00:29:32.420Z,18.31
2018-07-22T00:32:00.643Z,18.28
2018-07-22T00:34:28.965Z,18.24
2018-07-22T00:36:57.171Z,18.31
2018-07-22T00:39:25.403Z,18.34
2018-07-22T00:41:53.712Z,18.33
2018-07-22T00:44:21.960Z,18.30
2018-07-22T00:46:50.228Z,18.22
2018-07-22T00:49:18.466Z,18.19
2018-07-22T00:51:46.734Z,18.14
2018-07-22T00:54:14.973Z,18.15
2018-07-22T00:56:43.240Z,18.18
2018-07-22T00:59:11.482Z,18.14
2018-07-22T01:01:39.728Z,18.14
2018-07-22T01:04:08.019Z,18.09
2018-07-22T01:06:36.299Z,18.16
2018-07-22T01:09:07.632Z,18.13
2018-07-22T01:11:35.923Z,18.10
2018-07-22T01:14:04.229Z,18.08
2018-07-22T01:16:32.531Z,18.10
2018-07-22T01:19:00.767Z,18.03
2018-07-22T01:21:29.037Z,18.08
2018-07-22T01:23:57.347Z,17.96
2018-07-22T01:26:25.621Z,18.00
2018-07-22T01:28:53.807Z,18.01
2018-07-22T01:31:22.126Z,17.99
2018-07-22T01:33:50.374Z,18.04
2018-07-22T01:36:18.631Z,18.10
2018-07-22T01:38:46.931Z,18.08
2018-07-22T01:41:15.195Z,18.08
2018-07-22T01:43:43.475Z,18.03
2018-07-22T01:46:11.770Z,18.07
2018-07-22T01:48:40.073Z,18.07
2018-07-22T01:51:08.594Z,18.04
2018-07-22T01:53:36.929Z,18.12
2018-07-22T01:56:05.389Z,18.12
2018-07-22T01:58:33.617Z,18.11
2018-07-22T02:01:01.896Z,18.11
2018-07-22T02:03:30.167Z,18.04
2018-07-22T02:05:58.416Z,18.10
2018-07-22T02:08:26.678Z,18.02
2018-07-22T02:10:54.881Z,18.00
2018-07-22T02:13:23.154Z,18.03
2018-07-22T02:15:51.416Z,17.99
2018-07-22T02:18:19.688Z,18.00
2018-07-22T02:20:47.942Z,17.99
2018-07-22T02:23:16.280Z,17.90
2018-07-22T02:25:44.526Z,17.92
2018-07-22T02:28:12.759Z,17.94
2018-07-22T02:30:41.024Z,17.92
2018-07-22T02:33:09.259Z,17.90
2018-07-22T02:35:37.511Z,17.90
2018-07-22T02:38:05.919Z,17.87
2018-07-22T02:40:34.188Z,17.78
2018-07-22T02:43:02.876Z,17.82
2018-07-22T02:45:31.164Z,17.84
2018-07-22T02:47:59.400Z,17.81
2018-07-22T02:50:27.637Z,17.78
2018-07-22T02:52:55.980Z,17.75
2018-07-22T02:55:24.192Z,17.72
2018-07-22T02:57:52.470Z,17.69
2018-07-22T03:00:20.736Z,17.68
2018-07-22T03:02:48.968Z,17.67
2018-07-22T03:05:17.263Z,17.73
2018-07-22T03:07:45.515Z,17.74
2018-07-22T03:10:13.820Z,17.72
2018-07-22T03:12:42.183Z,17.64
2018-07-22T03:15:10.470Z,17.65
2018-07-22T03:17:38.709Z,17.59
2018-07-22T03:20:07.070Z,17.62
2018-07-22T03:22:35.428Z,17.61
2018-07-22T03:25:03.652Z,17.61
2018-07-22T03:27:31.884Z,17.56
2018-07-22T03:30:00.184Z,17.58
2018-07-22T03:32:28.460Z,17.58
2018-07-22T03:34:56.699Z,17.67
2018-07-22T03:37:24.999Z,17.71
2018-07-22T03:39:53.240Z,17.69
2018-07-22T03:42:21.515Z,17.73
2018-07-22T03:44:49.783Z,17.73
2018-07-22T03:47:18.084Z,17.75
2018-07-22T03:49:46.272Z,17.79
2018-07-22T03:52:14.550Z,17.78
2018-07-22T03:54:42.818Z,17.84
2018-07-22T03:57:11.139Z,17.72
2018-07-22T03:59:40.985Z,17.73
2018-07-22T04:02:09.254Z,17.77
2018-07-22T04:04:37.493Z,17.83
2018-07-22T04:07:05.813Z,17.87
2018-07-22T04:09:33.988Z,17.88
2018-07-22T04:12:02.978Z,17.94
2018-07-22T04:14:31.185Z,17.91
2018-07-22T04:16:59.455Z,17.94
2018-07-22T04:19:27.724Z,17.98
2018-07-22T04:21:55.997Z,17.99
2018-07-22T04:24:24.273Z,17.98
2018-07-22T04:26:52.512Z,18.00
2018-07-22T04:29:20.792Z,17.97
2018-07-22T04:31:49.027Z,17.99
2018-07-22T04:34:17.304Z,18.04
2018-07-22T04:36:45.514Z,18.05
2018-07-22T04:39:13.819Z,18.08
2018-07-22T04:41:42.059Z,18.14
2018-07-22T04:44:10.330Z,18.13
2018-07-22T04:46:38.566Z,18.19
2018-07-22T04:49:06.855Z,18.17
2018-07-22T04:51:35.102Z,18.22
2018-07-22T04:54:03.787Z,18.22
2018-07-22T04:56:32.028Z,18.19
2018-07-22T04:59:00.305Z,18.21
2018-07-22T05:01:28.537Z,18.19
2018-07-22T05:03:56.811Z,18.24
2018-07-22T05:06:25.055Z,18.24
2018-07-22T05:08:53.361Z,18.19
2018-07-22T05:11:21.607Z,18.15
2018-07-22T05:13:49.842Z,18.10
2018-07-22T05:16:18.117Z,18.07
2018-07-22T05:18:46.356Z,18.09
2018-07-22T05:21:14.614Z,18.11
2018-07-22T05:23:42.915Z,18.04
2018-07-22T05:26:11.186Z,18.01
2018-07-22T05:28:39.419Z,18.04
2018-07-22T05:31:07.687Z,18.04
2018-07-22T05:33:35.915Z,18.05
2018-07-22T05:36:04.181Z,18.07
2018-07-22T05:38:32.460Z,18.06
2018-07-22T05:41:00.751Z,18.10
2018-07-22T05:43:29.018Z,18.13
2018-07-22T05:45:57.298Z,18.05
2018-07-22T05:48:25.533Z,18.12
2018-07-22T05:50:53.797Z,18.14
2018-07-22T05:53:22.019Z,18.14
2018-07-22T05:55:50.244Z,18.15
2018-07-22T05:58:18.517Z,18.11
2018-07-22T06:00:46.756Z,18.17
2018-07-22T06:03:15.034Z,18.19
2018-07-22T06:05:43.248Z,18.26
2018-07-22T06:08:11.547Z,18.25
2018-07-22T06:10:39.787Z,18.22
2018-07-22T06:13:08.056Z,18.15
2018-07-22T06:15:36.287Z,18.09
2018-07-22T06:18:04.612Z,18.10
2018-07-22T06:20:32.888Z,18.08
2018-07-22T06:23:01.148Z,18.04
2018-07-22T06:25:29.380Z,18.02
2018-07-22T06:27:57.647Z,18.05
2018-07-22T06:30:26.960Z,18.07
2018-07-22T06:32:55.264Z,18.10
2018-07-22T06:35:23.505Z,18.08
2018-07-22T06:37:51.792Z,18.13
2018-07-22T06:40:20.022Z,18.13
2018-07-22T06:42:48.288Z,18.14
2018-07-22T06:45:16.521Z,18.11
2018-07-22T06:47:44.781Z,18.16
2018-07-22T06:50:13.062Z,18.10
2018-07-22T06:52:41.301Z,18.01
2018-07-22T06:55:09.560Z,17.96
2018-07-22T06:57:37.794Z,17.97
2018-07-22T07:00:06.289Z,18.03
2018-07-22T07:02:34.537Z,17.94
2018-07-22T07:05:02.877Z,18.06
2018-07-22T07:07:31.060Z,18.04
2018-07-22T07:09:59.327Z,18.08
2018-07-22T07:12:27.565Z,18.13
2018-07-22T07:14:55.840Z,18.22
2018-07-22T07:17:24.071Z,18.26
2018-07-22T07:19:52.341Z,18.12
2018-07-22T07:22:20.572Z,18.21
2018-07-22T07:24:48.872Z,18.20
2018-07-22T07:27:17.101Z,18.23
2018-07-22T07:29:45.352Z,18.21
2018-07-22T07:32:13.636Z,18.28
2018-07-22T07:34:41.904Z,18.33
2018-07-22T07:37:10.134Z,18.32
2018-07-22T07:39:38.423Z,18.32
2018-07-22T07:42:06.784Z,18.32
2018-07-22T07:44:35.371Z,18.34
2018-07-22T07:47:03.635Z,18.42
2018-07-22T07:49:31.882Z,18.36
2018-07-22T07:52:00.151Z,18.40
2018-07-22T07:54:26.938Z,18.42
2018-07-22T07:56:53.696Z,18.47
2018-07-22T07:59:20.423Z,18.51
2018-07-22T08:01:47.179Z,18.59
2018-07-22T08:04:13.907Z,18.57
2018-07-22T08:06:40.673Z,18.54
2018-07-22T08:09:08.427Z,18.59
2018-07-22T08:11:35.332Z,18.57
2018-07-22T08:14:02.191Z,18.59
2018-07-22T08:16:28.943Z,18.54
2018-07-22T08:18:56.440Z,18.55
2018-07-22T08:23:49.435Z,18.64
2018-07-22T08:26:16.337Z,18.69
2018-07-22T08:29:37.905Z,18.64
2018-07-22T08:32:05.467Z,18.66
2018-07-22T08:34:32.207Z,18.59
2018-07-22T08:36:59.279Z,18.58
2018-07-22T08:39:27.227Z,18.53
2018-07-22T08:41:54.604Z,18.53
2018-07-22T08:44:21.442Z,18.48
2018-07-22T08:46:48.176Z,18.52
2018-07-22T08:49:14.931Z,18.55
2018-07-22T08:51:41.713Z,18.53
2018-07-22T08:54:08.483Z,18.63
2018-07-22T08:56:35.203Z,18.72
2018-07-22T08:59:03.269Z,18.78
2018-07-22T09:01:30.456Z,18.81
2018-07-22T09:03:57.241Z,18.86
2018-07-22T09:06:24.575Z,18.80
2018-07-22T09:08:51.363Z,18.84
2018-07-22T09:11:18.088Z,18.81
2018-07-22T09:13:44.847Z,18.91
2018-07-22T09:16:11.662Z,18.95
2018-07-22T09:18:38.988Z,19.00
2018-07-22T09:21:05.848Z,18.97
2018-07-22T09:23:32.828Z,19.02
2018-07-22T09:25:59.557Z,19.08
2018-07-22T09:28:26.280Z,19.06
2018-07-22T09:30:53.075Z,19.00
2018-07-22T09:33:19.799Z,18.98
2018-07-22T09:35:46.893Z,18.95
2018-07-22T09:38:13.613Z,18.97
2018-07-22T09:40:40.476Z,18.98
2018-07-22T09:43:07.202Z,18.97
2018-07-22T09:45:34.142Z,18.92
2018-07-22T09:48:00.928Z,18.79
2018-07-22T09:50:29.956Z,18.72
2018-07-22T09:52:56.719Z,18.70
2018-07-22T09:55:23.480Z,18.73
2018-07-22T09:57:50.215Z,18.73
2018-07-22T10:00:22.832Z,18.75
2018-07-22T10:02:49.571Z,18.70
2018-07-22T10:05:16.312Z,18.75
2018-07-22T10:07:43.079Z,18.73
2018-07-22T10:10:09.807Z,18.71
2018-07-22T10:12:36.571Z,18.71
2018-07-22T10:15:03.464Z,18.65
2018-07-22T10:17:30.275Z,18.65
2018-07-22T10:19:57.056Z,18.65
2018-07-22T10:22:24.423Z,18.65
2018-07-22T10:24:51.148Z,18.68
2018-07-22T10:27:17.909Z,18.66
2018-07-22T10:29:44.683Z,18.68
2018-07-22T10:32:11.451Z,18.64
2018-07-22T10:34:38.175Z,18.61
2018-07-22T10:37:05.017Z,18.59
2018-07-22T10:39:31.803Z,18.59
2018-07-22T10:41:58.571Z,18.58
2018-07-22T10:44:25.303Z,18.64
2018-07-22T10:46:52.054Z,18.63
2018-07-22T10:49:18.779Z,18.60
2018-07-22T10:51:45.539Z,18.58
2018-07-22T10:54:12.303Z,18.70
2018-07-22T10:56:39.078Z,18.70
2018-07-22T10:59:05.848Z,18.71
2018-07-22T11:01:32.620Z,18.64
2018-07-22T11:03:59.419Z,18.63
2018-07-22T11:06:27.015Z,18.61
2018-07-22T11:08:53.793Z,18.65
2018-07-22T11:11:20.535Z,18.65
2018-07-22T11:13:47.312Z,18.63
2018-07-22T11:16:14.063Z,18.60
2018-07-22T11:18:40.834Z,18.70
2018-07-22T11:21:07.636Z,18.73
2018-07-22T11:23:34.496Z,18.66
2018-07-22T11:26:02.014Z,18.58
2018-07-22T11:28:28.815Z,18.53
2018-07-22T11:30:55.571Z,18.46
2018-07-22T11:33:22.315Z,18.44
2018-07-22T11:35:49.091Z,18.44
2018-07-22T11:38:15.868Z,18.50
2018-07-22T11:40:42.689Z,18.58
2018-07-22T11:43:09.436Z,18.66
2018-07-22T11:45:36.220Z,18.78
2018-07-22T11:48:02.971Z,18.79
2018-07-22T11:50:29.777Z,18.89
2018-07-22T11:52:56.526Z,18.89
2018-07-22T11:55:23.319Z,18.86
2018-07-22T11:57:50.094Z,18.95
2018-07-22T12:00:16.882Z,18.97
2018-07-22T12:02:43.599Z,19.04
2018-07-22T12:05:10.387Z,19.06
2018-07-22T12:07:37.179Z,19.17
2018-07-22T12:10:04.015Z,19.24
2018-07-22T12:12:30.825Z,19.34
2018-07-22T12:14:57.617Z,19.39
2018-07-22T12:17:24.441Z,19.36
2018-07-22T12:19:51.208Z,19.38
2018-07-22T12:22:18.035Z,19.40
2018-07-22T12:24:44.789Z,19.44
2018-07-22T12:27:11.556Z,19.50
2018-07-22T12:29:38.525Z,19.52
2018-07-22T12:32:05.367Z,19.55
2018-07-22T12:34:32.195Z,19.57
2018-07-22T12:37:00.389Z,19.60
2018-07-22T12:39:27.503Z,19.48
2018-07-22T12:41:54.483Z,19.34
2018-07-22T12:44:21.604Z,19.30
2018-07-22T12:46:48.586Z,19.09
2018-07-22T12:49:15.458Z,18.96
2018-07-22T12:54:30.619Z,18.91
2018-07-22T12:56:58.040Z,18.98
2018-07-22T12:59:28.999Z,18.98
2018-07-22T13:01:55.398Z,19.05
2018-07-22T13:04:22.290Z,19.13
2018-07-22T13:06:49.295Z,19.22
2018-07-22T13:09:16.240Z,19.28
2018-07-22T13:11:43.248Z,19.36
2018-07-22T13:14:10.602Z,19.42
2018-07-22T13:16:38.084Z,19.48
2018-07-22T13:19:05.089Z,19.55
2018-07-22T13:21:32.283Z,19.61
2018-07-22T13:23:59.168Z,19.70
2018-07-22T13:26:26.434Z,19.75
2018-07-22T13:28:53.386Z,19.66
2018-07-22T13:31:20.544Z,19.63
2018-07-22T13:33:47.519Z,19.63
2018-07-22T13:36:14.498Z,19.74
2018-07-22T13:38:41.609Z,19.77
2018-07-22T13:41:08.651Z,19.79
2018-07-22T13:43:35.812Z,19.84
2018-07-22T13:46:02.764Z,19.91
2018-07-22T13:48:29.976Z,20.05
2018-07-22T13:50:56.886Z,20.19
2018-07-22T13:53:23.770Z,20.33
2018-07-22T13:55:50.582Z,20.47
2018-07-22T13:58:17.460Z,20.62
2018-07-22T14:00:44.490Z,20.68
2018-07-22T14:03:11.555Z,20.81
2018-07-22T14:05:38.350Z,20.91
2018-07-22T14:08:05.208Z,20.84
2018-07-22T14:10:33.052Z,20.76
2018-07-22T14:12:59.872Z,20.66
2018-07-22T14:15:26.782Z,20.55
2018-07-22T14:17:53.586Z,20.54
2018-07-22T14:20:20.399Z,20.55
2018-07-22T14:22:47.220Z,20.49
2018-07-22T14:25:14.370Z,20.48
2018-07-22T14:27:41.183Z,20.42
2018-07-22T14:30:07.964Z,20.28
2018-07-22T14:32:34.814Z,20.31
2018-07-22T14:35:02.141Z,20.39
2018-07-22T14:37:30.714Z,20.52
2018-07-22T14:39:59.653Z,20.54
2018-07-22T14:42:26.575Z,20.39
2018-07-22T14:44:53.360Z,20.36
2018-07-22T14:47:24.366Z,20.32
2018-07-22T14:49:51.376Z,20.20
2018-07-22T14:52:18.645Z,20.14
2018-07-22T14:54:48.693Z,20.11
2018-07-22T14:57:17.857Z,20.14
2018-07-22T14:59:47.392Z,20.16
2018-07-22T15:02:14.141Z,20.09
2018-07-22T15:04:40.909Z,20.06
2018-07-22T15:07:08.026Z,20.03
2018-07-22T15:09:35.249Z,20.10
2018-07-22T15:12:02.048Z,20.14
2018-07-22T15:14:29.066Z,20.10
2018-07-22T15:16:55.948Z,20.04
2018-07-22T15:19:22.838Z,20.06
2018-07-22T15:21:49.668Z,19.98
2018-07-22T15:24:17.409Z,19.93
2018-07-22T15:26:44.221Z,19.91
2018-07-22T15:29:11.100Z,19.87
2018-07-22T15:31:38.716Z,19.84
2018-07-22T15:34:05.541Z,19.89
2018-07-22T15:36:32.586Z,19.81
2018-07-22T15:39:01.758Z,19.80
2018-07-22T15:41:30.068Z,19.80
2018-07-22T15:43:56.851Z,19.81
2018-07-22T15:46:23.764Z,19.81
2018-07-22T15:48:50.912Z,19.78
2018-07-22T15:51:20.235Z,19.71
2018-07-22T15:53:47.070Z,19.69
2018-07-22T15:56:15.249Z,19.67
2018-07-22T15:58:42.309Z,19.65
2018-07-22T16:01:10.861Z,19.66
2018-07-22T16:03:38.087Z,19.64
2018-07-22T16:06:05.126Z,19.61
2018-07-22T16:08:31.911Z,19.67
2018-07-22T16:10:59.356Z,19.67
2018-07-22T16:13:26.362Z,19.62
2018-07-22T16:15:53.145Z,19.56
2018-07-22T16:18:19.933Z,19.58
2018-07-22T16:20:47.129Z,19.54
2018-07-22T16:23:14.045Z,19.54
2018-07-22T16:25:41.057Z,19.61
2018-07-22T16:28:07.849Z,19.62
2018-07-22T16:30:34.800Z,19.67
2018-07-22T16:33:01.885Z,19.61
2018-07-22T16:35:28.740Z,19.61
2018-07-22T16:37:56.974Z,19.68
2018-07-22T16:40:23.913Z,19.70
2018-07-22T16:42:51.142Z,19.70
2018-07-22T16:45:18.033Z,19.69
2018-07-22T16:47:45.537Z,19.73
2018-07-22T16:50:12.490Z,19.75
2018-07-22T16:52:39.359Z,19.76
2018-07-22T16:55:06.165Z,19.75
2018-07-22T16:57:34.029Z,19.73
2018-07-22T17:00:01.033Z,19.73
2018-07-22T17:02:27.879Z,19.59
2018-07-22T17:04:54.643Z,19.49
2018-07-22T17:07:21.905Z,19.56
2018-07-22T17:09:50.292Z,19.58
2018-07-22T17:12:17.582Z,19.58
2018-07-22T17:14:44.824Z,19.57
2018-07-22T17:17:11.631Z,19.56
2018-07-22T17:19:38.508Z,19.55
2018-07-22T17:22:05.384Z,19.56
2018-07-22T17:24:32.171Z,19.58
2018-07-22T17:26:59.026Z,19.57
2018-07-22T17:29:25.799Z,19.63
2018-07-22T17:31:52.852Z,19.61
2018-07-22T17:34:19.720Z,19.60
2018-07-22T17:36:46.536Z,19.58
2018-07-22T17:39:13.297Z,19.56
2018-07-22T17:41:40.587Z,19.56
2018-07-22T17:44:07.792Z,19.55
2018-07-22T17:46:34.568Z,19.55
2018-07-22T17:49:02.057Z,19.51
2018-07-22T17:51:29.152Z,19.52
2018-07-22T17:53:56.028Z,19.49
2018-07-22T17:56:22.802Z,19.48
2018-07-22T17:58:49.695Z,19.52
2018-07-22T18:01:16.494Z,19.50
2018-07-22T18:03:43.323Z,19.43
2018-07-22T18:06:10.113Z,19.43
2018-07-22T18:08:36.931Z,19.41
2018-07-22T18:11:03.703Z,19.45
2018-07-22T18:13:31.031Z,19.45
2018-07-22T18:15:57.799Z,19.32
2018-07-22T18:18:24.583Z,19.31
2018-07-22T18:20:51.359Z,19.34
2018-07-22T18:23:18.152Z,19.38
2018-07-22T18:25:45.594Z,19.32
2018-07-22T18:28:13.036Z,19.26
2018-07-22T18:30:39.951Z,19.32
2018-07-22T18:33:06.748Z,19.34
2018-07-22T18:35:34.051Z,19.36
2018-07-22T18:38:01.533Z,19.37
2018-07-22T18:40:28.375Z,19.46
2018-07-22T18:42:56.062Z,19.37
2018-07-22T18:45:23.038Z,19.35
2018-07-22T18:47:49.860Z,19.29
2018-07-22T18:50:16.796Z,19.28
2018-07-22T18:52:43.577Z,19.29
2018-07-22T18:55:10.384Z,19.26
2018-07-22T18:57:37.740Z,19.27
2018-07-22T19:00:05.891Z,19.27
2018-07-22T19:02:33.031Z,19.32
2018-07-22T19:04:59.951Z,19.33
2018-07-22T19:07:26.957Z,19.37
2018-07-22T19:09:53.822Z,19.44
2018-07-22T19:12:20.600Z,19.44
2018-07-22T19:14:47.403Z,19.45
2018-07-22T19:17:14.451Z,19.46
2018-07-22T19:19:41.621Z,19.38
2018-07-22T19:22:08.483Z,19.37
2018-07-22T19:24:35.334Z,19.32
2018-07-22T19:27:02.250Z,19.33
2018-07-22T19:29:29.048Z,19.37
2018-07-22T19:31:55.911Z,19.42
2018-07-22T19:34:22.717Z,19.39
2018-07-22T19:36:50.135Z,19.42
2018-07-22T19:39:17.418Z,19.44
2018-07-22T19:41:44.519Z,19.36
2018-07-22T19:44:11.314Z,19.40
2018-07-22T19:46:38.140Z,19.43
2018-07-22T19:49:05.019Z,19.48
2018-07-22T19:51:31.831Z,19.42
2018-07-22T19:53:58.723Z,19.42
2018-07-22T19:56:25.644Z,19.43
2018-07-22T19:58:52.479Z,19.42
2018-07-22T20:01:19.616Z,19.36
2018-07-22T20:03:46.542Z,19.30
2018-07-22T20:06:13.368Z,19.27
2018-07-22T20:08:40.180Z,19.32
2018-07-22T20:11:07.420Z,19.33
2018-07-22T20:13:34.652Z,19.30
2018-07-22T20:16:01.950Z,19.28
2018-07-22T20:18:28.825Z,19.36
2018-07-22T20:20:55.720Z,19.34
2018-07-22T20:23:22.542Z,19.29
2018-07-22T20:25:49.628Z,19.25
2018-07-22T20:28:16.557Z,19.22
2018-07-22T20:30:43.648Z,19.22
2018-07-22T20:33:11.307Z,19.21
2018-07-22T20:35:38.096Z,19.10
2018-07-22T20:38:04.974Z,19.03
2018-07-22T20:40:31.936Z,19.08
2018-07-22T20:42:58.756Z,19.05
2018-07-22T20:45:25.946Z,19.00
2018-07-22T20:47:52.730Z,19.04
2018-07-22T20:50:19.626Z,19.01
2018-07-22T20:52:47.290Z,19.02
2018-07-22T20:55:14.084Z,18.92
2018-07-22T20:57:40.889Z,18.88
2018-07-22T21:00:08.580Z,18.95
2018-07-22T21:02:35.415Z,18.95
2018-07-22T21:05:02.558Z,18.94
2018-07-22T21:07:29.459Z,18.92
2018-07-22T21:09:56.461Z,18.92
2018-07-22T21:12:46.016Z,18.99
2018-07-22T21:15:13.954Z,19.03
2018-07-22T21:17:40.921Z,19.03
2018-07-22T21:20:07.990Z,19.03
2018-07-22T21:22:34.990Z,18.97
2018-07-22T21:25:07.634Z,18.86
2018-07-22T21:27:35.059Z,18.87
2018-07-22T21:30:02.475Z,18.80
2018-07-22T21:32:29.306Z,18.76
2018-07-22T21:35:10.989Z,18.82
2018-07-22T21:37:38.530Z,18.83
2018-07-22T21:40:08.642Z,18.86
2018-07-22T21:42:35.533Z,18.87
2018-07-22T21:45:03.229Z,18.92
2018-07-22T21:47:32.960Z,18.92
2018-07-22T21:49:59.848Z,18.98
2018-07-22T21:52:28.722Z,19.04
2018-07-22T21:54:55.575Z,19.01
2018-07-22T21:57:22.445Z,18.91
2018-07-22T21:59:49.272Z,18.97
2018-07-22T22:02:17.996Z,19.00
2018-07-22T22:04:45.230Z,19.01
2018-07-22T22:07:12.227Z,18.99
2018-07-22T22:09:39.106Z,18.93
2018-07-22T22:12:05.847Z,18.90
2018-07-22T22:14:32.647Z,18.96
2018-07-22T22:16:59.508Z,18.95
2018-07-22T22:19:27.255Z,18.98
2018-07-22T22:21:54.114Z,18.92
2018-07-22T22:24:21.029Z,18.97
2018-07-22T22:26:47.932Z,18.97
2018-07-22T22:29:15.993Z,18.93
2018-07-22T22:31:46.641Z,18.89
2018-07-22T22:34:13.567Z,18.89
2018-07-22T22:36:40.768Z,18.79
2018-07-22T22:39:08.975Z,18.74
2018-07-22T22:41:35.904Z,18.76
2018-07-22T22:44:02.895Z,18.82
2018-07-22T22:46:29.654Z,18.83
2018-07-22T22:48:56.471Z,18.90
2018-07-22T22:51:23.319Z,18.91
2018-07-22T22:53:50.708Z,18.96
2018-07-22T22:56:17.476Z,18.93
2018-07-22T22:58:56.019Z,18.89
2018-07-22T23:01:23.276Z,18.89
2018-07-22T23:03:50.066Z,18.86
2018-07-22T23:06:16.843Z,18.91
2018-07-22T23:08:43.712Z,18.86
2018-07-22T23:11:10.490Z,18.88
2018-07-22T23:13:38.123Z,18.91
2018-07-22T23:16:05.017Z,18.87
2018-07-22T23:18:31.807Z,18.85
2018-07-22T23:20:58.632Z,18.85
2018-07-22T23:23:25.451Z,18.74
2018-07-22T23:25:52.271Z,18.77
2018-07-22T23:28:19.026Z,18.77
2018-07-22T23:30:45.800Z,18.76
2018-07-22T23:33:12.595Z,18.72
2018-07-22T23:35:39.431Z,18.69
2018-07-22T23:38:06.167Z,18.81
2018-07-22T23:40:33.531Z,18.85
2018-07-22T23:43:00.364Z,18.83
2018-07-22T23:45:27.143Z,18.88
2018-07-22T23:47:54.072Z,18.78
2018-07-22T23:50:20.847Z,18.79
2018-07-22T23:52:47.626Z,18.83
2018-07-22T23:55:14.364Z,18.81
2018-07-22T23:57:41.144Z,18.81
